Time;durP1;ratioP1;P1;durP2;ratioP2;P2;SDS_P1;SDS_P2;PMS_P1;PMS_P2;Temp;Humidity;BMP_temperature;BMP_pressure;BME280_temperature;BME280_humidity;BME280_pressure;Samples;Min_cycle;Max_cycle;Signal;HPM_P1;HPM_P2
2021/09/26 00:02:21;;;;;;;1999.90;999.90;;;;;;;15.42;50.11;101280.84;4957300;28;99918;-76
2021/09/26 00:04:49;;;;;;;1999.90;999.90;;;;;;;15.42;50.42;101275.47;4956762;28;97658;-76
2021/09/26 00:07:18;;;;;;;1999.90;999.90;;;;;;;15.43;50.51;101278.19;4952704;28;99132;-76
2021/09/26 00:09:47;;;;;;;1999.90;999.90;;;;;;;15.42;50.32;101268.34;4956377;28;99306;-77
2021/09/26 00:12:15;;;;;;;1999.90;999.90;;;;;;;15.41;50.15;101268.34;4957687;28;97369;-77
2021/09/26 00:14:43;;;;;;;1999.90;999.90;;;;;;;15.40;50.74;101278.16;4958079;28;98225;-76
2021/09/26 00:17:11;;;;;;;1999.90;999.90;;;;;;;15.40;50.51;101270.13;4959572;28;96970;-76
2021/09/26 00:19:39;;;;;;;1999.90;999.90;;;;;;;15.39;50.71;101268.31;4957841;28;100930;-77
2021/09/26 00:22:07;;;;;;;1999.90;999.90;;;;;;;15.37;50.25;101279.91;4958883;28;100448;-77
2021/09/26 00:24:36;;;;;;;1999.90;999.90;;;;;;;15.37;50.40;101272.78;4959779;28;97119;-76
2021/09/26 00:27:08;;;;;;;1999.90;999.90;;;;;;;15.41;50.40;101277.25;4957849;28;97604;-77
2021/09/26 00:29:37;;;;;;;1999.90;999.90;;;;;;;15.41;50.22;101265.66;4959641;28;99774;-76
2021/09/26 00:32:05;;;;;;;1999.90;999.90;;;;;;;15.36;50.35;101262.91;4958852;28;99191;-77
2021/09/26 00:34:33;;;;;;;1999.90;999.90;;;;;;;15.33;50.53;101262.00;4959879;28;97100;-76
2021/09/26 00:37:01;;;;;;;1999.90;999.90;;;;;;;15.32;50.61;101271.81;4958729;28;97256;-77
2021/09/26 00:39:29;;;;;;;1999.90;999.90;;;;;;;15.26;50.79;101263.69;4959540;28;98880;-76
2021/09/26 00:41:58;;;;;;;1999.90;999.90;;;;;;;15.23;50.55;101265.44;4958246;28;100374;-76
2021/09/26 00:44:26;;;;;;;1999.90;999.90;;;;;;;15.21;51.08;101264.53;4959692;28;96932;-76
2021/09/26 00:46:55;;;;;;;1999.90;999.90;;;;;;;15.15;51.01;101262.69;4991794;28;98413;-77
2021/09/26 00:49:23;;;;;;;1999.90;999.90;;;;;;;15.15;50.91;101262.69;4958528;28;100857;-77
2021/09/26 00:51:51;;;;;;;1999.90;999.90;;;;;;;15.13;51.27;101264.44;4960622;28;98269;-76
2021/09/26 00:54:19;;;;;;;1999.90;999.90;;;;;;;15.10;51.30;101272.47;4958104;28;98317;-77
2021/09/26 00:56:48;;;;;;;1999.90;999.90;;;;;;;15.09;51.03;101267.97;4957919;28;96995;-76
2021/09/26 00:59:17;;;;;;;1999.90;999.90;;;;;;;15.06;51.31;101267.97;4960701;28;97894;-77
2021/09/26 01:01:45;;;;;;;1999.90;999.90;;;;;;;15.06;51.07;101270.63;4975306;28;97927;-77
2021/09/26 01:04:14;;;;;;;1999.90;999.90;;;;;;;15.04;50.92;101275.09;4959344;28;97869;-76
2021/09/26 01:06:55;;;;;;;1999.90;999.90;;;;;;;15.01;51.15;101283.06;4957184;28;97970;-77
2021/09/26 01:09:28;;;;;;;1999.90;999.90;;;;;;;14.99;50.93;101274.16;4957796;28;98362;-77
2021/09/26 01:12:01;;;;;;;1999.90;999.90;;;;;;;14.97;51.35;101278.59;4961918;28;98586;-77
2021/09/26 01:14:37;;;;;;;1999.90;999.90;;;;;;;14.94;51.03;101281.22;4944995;28;97727;-77
2021/09/26 01:17:09;;;;;;;1999.90;999.90;;;;;;;14.91;51.31;101273.16;4962538;28;97122;-77
2021/09/26 01:20:12;;;;;;;1999.90;999.90;;;;;;;14.88;51.11;101278.47;4962368;28;99645;-77
2021/09/26 01:22:53;;;;;;;1999.90;999.90;;;;;;;14.83;51.48;101281.09;4962123;28;98965;-77
2021/09/26 01:25:40;;;;;;;1999.90;999.90;;;;;;;14.84;51.21;101287.34;4962591;28;96809;-77
2021/09/26 01:28:31;;;;;;;1999.90;999.90;;;;;;;14.80;51.48;101280.16;4995690;28;97396;-77
2021/09/26 01:31:02;;;;;;;1999.90;999.90;;;;;;;14.79;51.19;101281.06;4945499;28;99885;-77
2021/09/26 01:33:33;;;;;;;1999.90;999.90;;;;;;;14.75;51.41;101281.91;4962858;28;97995;-77
2021/09/26 01:36:06;;;;;;;1999.90;999.90;;;;;;;14.74;51.52;101274.72;4964347;28;96978;-77
2021/09/26 01:38:37;;;;;;;1999.90;999.90;;;;;;;14.71;51.28;101280.06;4964900;28;97685;-77
2021/09/26 01:41:08;;;;;;;;;;;;;;;14.20;51.95;101282.91;4963739;28;98824;-77
2021/09/26 01:43:36;;;;;;;;;;;;;;;13.98;52.33;101279.03;4979306;28;98691;-77
2021/09/26 01:46:07;;;;;;;;;;;;;;;13.81;52.95;101280.53;4963184;28;96902;-77
2021/09/26 01:48:39;;;;;;;1999.90;999.90;;;;;;;14.17;52.52;101285.53;4962118;28;97405;-77
2021/09/26 01:51:07;;;;;;;1999.90;999.90;;;;;;;14.25;52.58;101288.31;4961408;28;97668;-76
2021/09/26 01:53:37;;;;;;;1999.90;999.90;;;;;;;14.26;52.41;101284.78;4959768;28;98218;-77
2021/09/26 01:56:05;;;;;;;1999.90;999.90;;;;;;;14.25;52.54;101288.31;4963489;28;98049;-77
2021/09/26 01:58:33;;;;;;;1999.90;999.90;;;;;;;14.23;52.46;101295.41;4962291;28;97308;-77
2021/09/26 02:01:07;;;;;;;1999.90;999.90;;;;;;;14.25;52.45;101282.97;4990706;28;99303;-77
2021/09/26 02:03:35;;;;;;;1999.90;999.90;;;;;;;14.22;52.62;101283.84;4961584;28;99044;-76
2021/09/26 02:06:04;;;;;;;1999.90;999.90;;;;;;;14.22;52.39;101277.56;4955309;28;97178;-77
2021/09/26 02:08:33;;;;;;;1999.90;999.90;;;;;;;14.19;52.30;101283.78;4957958;28;98019;-76
2021/09/26 02:11:01;;;;;;;1999.90;999.90;;;;;;;14.17;52.39;101284.66;4959885;28;97478;-77
2021/09/26 02:18:04;;;;;;;1999.90;999.90;;;;;;;14.18;52.26;101276.63;4972451;28;97335;-76
2021/09/26 02:20:32;;;;;;;1999.90;999.90;;;;;;;14.18;52.26;101282.00;4958227;28;97585;-76
2021/09/26 02:23:00;;;;;;;1999.90;999.90;;;;;;;14.17;52.44;101275.72;4960569;28;99368;-76
2021/09/26 02:25:28;;;;;;;1999.90;999.90;;;;;;;14.15;52.14;101277.47;4960412;28;98149;-76
2021/09/26 02:27:56;;;;;;;1999.90;999.90;;;;;;;14.15;52.56;101276.59;4960883;28;97948;-76
2021/09/26 02:30:27;;;;;;;1999.90;999.90;;;;;;;14.15;52.40;101273.94;4961383;28;98828;-76
2021/09/26 02:32:55;;;;;;;1999.90;999.90;;;;;;;14.12;52.22;101274.78;4958931;28;98598;-76
2021/09/26 02:35:24;;;;;;;1999.90;999.90;;;;;;;14.11;52.35;101283.69;4960536;28;98282;-76
2021/09/26 02:37:52;;;;;;;1999.90;999.90;;;;;;;14.11;52.41;101290.81;4976957;28;97376;-76
2021/09/26 02:40:20;;;;;;;1999.90;999.90;;;;;;;14.08;52.39;101283.63;4965030;28;97523;-75
2021/09/26 02:42:58;;;;;;;1999.90;999.90;;;;;;;14.07;52.35;101284.53;4961706;28;97843;-76
2021/09/26 02:45:33;;;;;;;1999.90;999.90;;;;;;;14.05;52.02;101280.91;4962399;28;97311;-76
2021/09/26 02:48:04;;;;;;;1999.90;999.90;;;;;;;14.04;52.39;101272.88;4963235;28;96789;-76
2021/09/26 02:50:33;;;;;;;1999.90;999.90;;;;;;;14.05;52.43;101280.91;4977376;28;97217;-76
2021/09/26 02:53:03;;;;;;;1999.90;999.90;;;;;;;14.03;52.34;101282.66;4945195;28;99455;-76
2021/09/26 02:55:32;;;;;;;1999.90;999.90;;;;;;;14.01;52.57;101275.47;4965594;28;97902;-76
2021/09/26 02:58:00;;;;;;;1999.90;999.90;;;;;;;13.99;52.38;101274.56;4964978;28;97795;-76
2021/09/26 03:00:33;;;;;;;1999.90;999.90;;;;;;;13.99;52.46;101274.56;4964535;28;97400;-76
2021/09/26 03:03:06;;;;;;;1999.90;999.90;;;;;;;13.99;52.49;101275.47;4966931;28;99124;-76
2021/09/26 03:05:36;;;;;;;1999.90;999.90;;;;;;;13.97;52.23;101279.88;4965775;28;96879;-76
2021/09/26 03:08:04;;;;;;;1999.90;999.90;;;;;;;13.96;52.48;101283.47;4961101;28;97402;-76
2021/09/26 03:10:33;;;;;;;1999.90;999.90;;;;;;;13.94;52.28;101271.81;4964195;28;97830;-77
2021/09/26 03:13:01;;;;;;;1999.90;999.90;;;;;;;13.94;52.44;101277.19;4964239;28;97892;-76
2021/09/26 03:15:29;;;;;;;1999.90;999.90;;;;;;;13.92;52.41;101272.66;4963591;28;97696;-76
2021/09/26 03:17:57;;;;;;;1999.90;999.90;;;;;;;13.91;52.63;101271.78;4961343;28;97523;-75
2021/09/26 03:20:25;;;;;;;1999.90;999.90;;;;;;;13.93;52.65;101267.34;4976756;28;97356;-76
2021/09/26 03:22:55;;;;;;;1999.90;999.90;;;;;;;13.93;52.72;101263.78;4960713;28;97788;-77
2021/09/26 03:25:23;;;;;;;1999.90;999.90;;;;;;;13.92;52.69;101268.22;4963047;28;101848;-76
2021/09/26 03:27:51;;;;;;;1999.90;999.90;;;;;;;13.93;52.82;101267.34;4961039;28;97363;-76
2021/09/26 03:30:19;;;;;;;1999.90;999.90;;;;;;;13.91;52.70;101271.78;4963560;28;97229;-76
2021/09/26 03:32:47;;;;;;;1999.90;999.90;;;;;;;13.92;52.68;101270.00;4961643;28;99374;-76
2021/09/26 03:35:15;;;;;;;1999.90;999.90;;;;;;;13.91;52.68;101268.22;4961886;28;97613;-77
2021/09/26 03:37:43;;;;;;;1999.90;999.90;;;;;;;13.88;52.87;101269.03;4945493;28;98206;-77
2021/09/26 03:40:15;;;;;;;1999.90;999.90;;;;;;;13.89;52.76;101261.94;4976764;28;97838;-76
2021/09/26 03:42:43;;;;;;;1999.90;999.90;;;;;;;13.88;52.78;101263.69;4960240;28;100082;-76
2021/09/26 03:45:12;;;;;;;1999.90;999.90;;;;;;;13.86;53.00;101253.88;4977549;28;97774;-77
2021/09/26 03:47:40;;;;;;;1999.90;999.90;;;;;;;13.85;52.94;101255.63;4945139;28;97321;-77
2021/09/26 03:50:09;;;;;;;1999.90;999.90;;;;;;;13.83;53.08;101252.03;4961655;28;97088;-76
2021/09/26 03:52:39;;;;;;;1999.90;999.90;;;;;;;13.84;53.01;101247.59;4959784;28;120027;-77
2021/09/26 03:55:09;;;;;;;1999.90;999.90;;;;;;;13.82;53.03;101244.88;4963184;28;97594;-75
2021/09/26 03:57:38;;;;;;;1999.90;999.90;;;;;;;13.81;53.12;101234.16;4995196;28;97210;-77
2021/09/26 04:00:10;;;;;;;1999.90;999.90;;;;;;;13.81;53.01;101237.72;4962107;28;98000;-77
2021/09/26 04:02:40;;;;;;;1999.90;999.90;;;;;;;13.80;52.96;101230.59;4955022;28;98112;-77
2021/09/26 04:05:09;;;;;;;1999.90;999.90;;;;;;;13.78;53.00;101234.06;4991175;28;98243;-76
2021/09/26 04:07:38;;;;;;;1999.90;999.90;;;;;;;13.76;53.16;101233.16;4954762;28;97746;-76
2021/09/26 04:10:08;;;;;;;1999.90;999.90;;;;;;;13.75;53.12;101240.25;4958537;28;97375;-77
2021/09/26 04:12:36;;;;;;;1999.90;999.90;;;;;;;13.73;52.94;101230.44;4959602;28;100177;-77
2021/09/26 04:15:06;;;;;;;1999.90;999.90;;;;;;;13.73;52.99;101234.00;4991424;28;97679;-76
2021/09/26 04:17:34;;;;;;;1999.90;999.90;;;;;;;13.73;53.07;101231.31;4963222;28;96922;-77
2021/09/26 04:20:02;;;;;;;1999.90;999.90;;;;;;;13.72;52.97;101231.31;4980037;28;96782;-76
2021/09/26 04:22:29;;;;;;;1999.90;999.90;;;;;;;13.71;52.87;101233.09;4984673;28;97686;-76
2021/09/26 04:24:57;;;;;;;1999.90;999.90;;;;;;;13.69;53.22;101226.81;4984327;28;98765;-76
2021/09/26 04:27:25;;;;;;;1999.90;999.90;;;;;;;13.67;53.21;101228.56;4984355;28;97170;-76
2021/09/26 04:29:54;;;;;;;1999.90;999.90;;;;;;;13.66;53.21;101226.75;4984248;28;96426;-77
2021/09/26 04:32:23;;;;;;;1999.90;999.90;;;;;;;13.65;52.89;101224.97;4964302;28;99207;-77
2021/09/26 04:34:51;;;;;;;1999.90;999.90;;;;;;;13.62;53.11;101226.69;4995065;28;97648;-77
2021/09/26 04:37:19;;;;;;;1999.90;999.90;;;;;;;13.61;52.99;101228.47;4978929;28;97543;-77
2021/09/26 04:39:47;;;;;;;1999.90;999.90;;;;;;;13.59;53.10;101229.31;4977650;28;96983;-76
2021/09/26 04:42:14;;;;;;;1999.90;999.90;;;;;;;13.55;53.07;101223.00;4979883;28;98259;-77
2021/09/26 04:44:42;;;;;;;1999.90;999.90;;;;;;;13.52;52.95;101228.31;4997554;28;98971;-77
2021/09/26 04:47:10;;;;;;;1999.90;999.90;;;;;;;13.52;52.99;101217.63;4963738;28;96952;-76
2021/09/26 04:49:39;;;;;;;1999.90;999.90;;;;;;;13.50;53.01;101223.81;4961112;28;97864;-77
2021/09/26 04:52:07;;;;;;;1999.90;999.90;;;;;;;13.48;52.88;101221.13;4961879;28;100352;-76
2021/09/26 04:54:36;;;;;;;1999.90;999.90;;;;;;;13.53;52.76;101219.41;4964443;28;97560;-76
2021/09/26 04:57:04;;;;;;;1999.90;999.90;;;;;;;13.43;52.94;101225.50;4963386;28;97242;-77
2021/09/26 04:59:32;;;;;;;1999.90;999.90;;;;;;;13.41;52.94;101229.00;4963907;28;97199;-78
2021/09/26 05:02:00;;;;;;;1999.90;999.90;;;;;;;13.40;52.96;101230.81;4978219;28;99727;-77
2021/09/26 05:04:30;;;;;;;1999.90;999.90;;;;;;;13.38;53.05;101228.97;4963954;28;97596;-77
2021/09/26 05:06:59;;;;;;;1999.90;999.90;;;;;;;13.36;52.99;101238.72;4963869;28;97378;-77
2021/09/26 05:09:28;;;;;;;1999.90;999.90;;;;;;;13.36;52.98;101242.31;4962963;28;97828;-77
2021/09/26 05:11:56;;;;;;;1999.90;999.90;;;;;;;13.37;52.87;101236.06;4981112;28;98672;-76
2021/09/26 05:14:24;;;;;;;1999.90;999.90;;;;;;;13.37;53.02;101235.19;4966187;28;98192;-76
2021/09/26 05:16:51;;;;;;;1999.90;999.90;;;;;;;13.37;52.96;101237.88;4996990;28;97766;-77
2021/09/26 05:19:19;;;;;;;1999.90;999.90;;;;;;;13.35;53.01;101229.81;4961656;28;98126;-77
2021/09/26 05:21:47;;;;;;;1999.90;999.90;;;;;;;13.32;52.99;101232.44;4961424;28;98513;-75
2021/09/26 05:24:16;;;;;;;1999.90;999.90;;;;;;;13.33;52.98;101222.66;4963340;28;99092;-78
2021/09/26 05:26:44;;;;;;;1999.90;999.90;;;;;;;13.30;53.08;101220.81;4962058;28;97176;-80
2021/09/26 05:29:12;;;;;;;1999.90;999.90;;;;;;;13.31;53.09;101227.06;4945011;28;97607;-78
2021/09/26 05:31:40;;;;;;;1999.90;999.90;;;;;;;13.30;53.05;101222.59;4960820;28;98115;-79
2021/09/26 05:34:09;;;;;;;1999.90;999.90;;;;;;;13.30;53.14;101218.13;4961894;28;98307;-77
2021/09/26 05:36:37;;;;;;;1999.90;999.90;;;;;;;13.31;53.07;101221.72;4961834;28;97662;-78
2021/09/26 05:39:08;;;;;;;1999.90;999.90;;;;;;;13.30;53.18;101218.13;4991678;28;97480;-75
2021/09/26 05:41:38;;;;;;;1999.90;999.90;;;;;;;13.30;53.11;101219.91;4961677;28;99738;-78
2021/09/26 05:44:05;;;;;;;1999.90;999.90;;;;;;;13.30;53.00;101223.50;4944628;28;99338;-78
2021/09/26 05:46:33;;;;;;;1999.90;999.90;;;;;;;13.29;53.03;101223.47;4960756;28;97524;-78
2021/09/26 05:49:01;;;;;;;1999.90;999.90;;;;;;;13.29;53.05;101223.47;4944232;28;97928;-78
2021/09/26 05:51:29;;;;;;;1999.90;999.90;;;;;;;13.30;53.21;101214.56;4960426;28;100395;-77
2021/09/26 05:53:57;;;;;;;1999.90;999.90;;;;;;;13.30;53.06;101220.81;4963487;28;99663;-78
2021/09/26 05:56:25;;;;;;;1999.90;999.90;;;;;;;13.30;53.25;101215.47;4962828;28;97470;-78
2021/09/26 05:58:54;;;;;;;1999.90;999.90;;;;;;;13.32;53.21;101218.16;4944489;28;97223;-78
2021/09/26 06:01:22;;;;;;;1999.90;999.90;;;;;;;13.33;53.22;101223.53;4993773;28;99673;-78
2021/09/26 06:03:50;;;;;;;1999.90;999.90;;;;;;;13.33;53.20;101226.19;4962876;28;100009;-78
2021/09/26 06:06:18;;;;;;;1999.90;999.90;;;;;;;13.31;53.29;101229.75;4963570;28;97320;-79
2021/09/26 06:08:45;;;;;;;1999.90;999.90;;;;;;;13.30;53.47;101222.59;4957718;28;97132;-80
2021/09/26 06:11:14;;;;;;;1999.90;999.90;;;;;;;13.30;53.39;101236.84;4958898;28;99334;-78
2021/09/26 06:13:42;;;;;;;1999.90;999.90;;;;;;;13.31;53.46;101233.31;4944566;28;98852;-79
2021/09/26 06:16:11;;;;;;;1999.90;999.90;;;;;;;13.32;53.52;101223.50;4962493;28;98065;-79
2021/09/26 06:18:39;;;;;;;1999.90;999.90;;;;;;;13.36;53.58;101230.72;4976512;28;97351;-80
2021/09/26 06:21:07;;;;;;;1999.90;999.90;;;;;;;13.38;53.42;101226.28;4960657;28;98298;-79
2021/09/26 06:23:35;;;;;;;1999.90;999.90;;;;;;;13.42;53.47;101226.38;4961456;28;99334;-79
2021/09/26 06:26:03;;;;;;;1999.90;999.90;;;;;;;13.46;53.44;101227.34;4962629;28;96874;-79
2021/09/26 06:28:31;;;;;;;1999.90;999.90;;;;;;;13.46;53.52;101232.69;4965068;28;97806;-79
2021/09/26 06:31:00;;;;;;;1999.90;999.90;;;;;;;13.48;53.45;101226.47;4946782;28;99730;-79
2021/09/26 06:33:30;;;;;;;1999.90;999.90;;;;;;;13.52;53.55;101228.31;4959864;28;97981;-79
2021/09/26 06:35:58;;;;;;;1999.90;999.90;;;;;;;13.53;53.56;101222.09;4963689;28;97887;-79
2021/09/26 06:38:26;;;;;;;1999.90;999.90;;;;;;;13.55;53.66;101223.00;4964980;28;97481;-78
2021/09/26 06:40:54;;;;;;;1999.90;999.90;;;;;;;13.59;53.74;101227.53;4967810;28;97700;-79
2021/09/26 06:43:22;;;;;;;1999.90;999.90;;;;;;;13.64;53.61;101227.63;4966990;28;99474;-78
2021/09/26 06:45:50;;;;;;;1999.90;999.90;;;;;;;13.65;53.42;101229.41;4963579;28;97382;-78
2021/09/26 06:48:18;;;;;;;1999.90;999.90;;;;;;;13.68;53.54;101234.78;4962999;28;97939;-79
2021/09/26 06:50:49;;;;;;;1999.90;999.90;;;;;;;13.68;53.58;101230.34;4995745;28;98200;-79
2021/09/26 06:53:17;;;;;;;1999.90;999.90;;;;;;;13.70;53.39;101228.59;4994780;28;99168;-79
2021/09/26 06:55:44;;;;;;;1999.90;999.90;;;;;;;13.72;53.42;101229.53;4963054;28;97298;-80
2021/09/26 06:58:12;;;;;;;1999.90;999.90;;;;;;;13.72;53.62;101226.84;4992770;28;97997;-80
2021/09/26 07:00:40;;;;;;;1999.90;999.90;;;;;;;13.75;53.61;101231.38;4973372;28;100632;-79
2021/09/26 07:03:08;;;;;;;1999.90;999.90;;;;;;;13.79;53.39;101228.78;4960509;28;98714;-78
2021/09/26 07:05:36;;;;;;;1999.90;999.90;;;;;;;13.79;53.43;101231.44;4989651;28;98251;-78
2021/09/26 07:08:06;;;;;;;1999.90;999.90;;;;;;;13.82;53.68;101230.63;4956930;28;98569;-80
2021/09/26 07:10:34;;;;;;;1999.90;999.90;;;;;;;13.86;53.48;101230.66;4952311;28;98792;-80
2021/09/26 07:13:02;;;;;;;1999.90;999.90;;;;;;;13.91;53.54;101245.03;4956048;28;99375;-76
2021/09/26 07:15:30;;;;;;;1999.90;999.90;;;;;;;13.96;53.28;101232.63;4959399;28;96923;-82
2021/09/26 07:17:59;;;;;;;1999.90;999.90;;;;;;;13.99;53.57;101223.72;4963143;28;98035;-78
2021/09/26 07:20:28;;;;;;;1999.90;999.90;;;;;;;14.05;53.57;101229.16;4960941;28;98815;-77
2021/09/26 07:22:57;;;;;;;1999.90;999.90;;;;;;;14.08;53.49;101224.75;4960448;28;97696;-77
2021/09/26 07:25:26;;;;;;;1999.90;999.90;;;;;;;14.11;53.26;101238.19;4955613;28;97835;-78
2021/09/26 07:27:54;;;;;;;1999.90;999.90;;;;;;;14.16;53.17;101238.25;4957265;28;98670;-77
2021/09/26 07:30:21;;;;;;;1999.90;999.90;;;;;;;14.24;53.37;101243.69;4957546;28;98482;-75
2021/09/26 07:32:49;;;;;;;1999.90;999.90;;;;;;;14.30;53.26;101254.50;4958240;28;97737;-75
2021/09/26 07:35:17;;;;;;;1999.90;999.90;;;;;;;14.35;53.04;101247.41;4956984;28;97140;-74
2021/09/26 07:37:45;;;;;;;1999.90;999.90;;;;;;;14.38;52.96;101236.75;4973693;28;96815;-73
2021/09/26 07:40:14;;;;;;;1999.90;999.90;;;;;;;14.42;52.75;101242.16;4956462;28;99869;-74
2021/09/26 07:42:43;;;;;;;1999.90;999.90;;;;;;;14.45;52.43;101258.25;4973147;28;98622;-74
2021/09/26 07:45:13;;;;;;;1999.90;999.90;;;;;;;14.49;52.57;101253.84;4958066;28;96960;-77
2021/09/26 07:47:41;;;;;;;1999.90;999.90;;;;;;;14.53;52.43;101253.00;4991055;28;97217;-76
2021/09/26 07:50:10;;;;;;;1999.90;999.90;;;;;;;14.57;52.13;101260.25;4974142;28;99487;-79
2021/09/26 07:52:38;;;;;;;1999.90;999.90;;;;;;;14.60;51.92;101252.22;4959881;28;98150;-77
2021/09/26 07:55:06;;;;;;;1999.90;999.90;;;;;;;14.63;51.90;101255.84;4957785;28;97887;-74
2021/09/26 07:57:34;;;;;;;1999.90;999.90;;;;;;;14.65;52.03;101247.81;4956452;28;98949;-77
2021/09/26 08:00:05;;;;;;;1999.90;999.90;;;;;;;14.67;51.75;101243.38;4959556;28;98923;-76
2021/09/26 08:02:38;;;;;;;1999.90;999.90;;;;;;;14.73;51.66;101248.81;4958926;28;101562;-77
2021/09/26 08:05:07;;;;;;;1999.90;999.90;;;;;;;14.76;51.83;101247.06;4959757;28;98128;-78
2021/09/26 08:07:36;;;;;;;1999.90;999.90;;;;;;;14.75;51.73;101239.94;4959953;28;96962;-78
2021/09/26 08:10:05;;;;;;;1999.90;999.90;;;;;;;14.78;51.40;101239.97;4954652;28;97993;-79
2021/09/26 08:12:33;;;;;;;1999.90;999.90;;;;;;;14.82;51.24;101241.78;4973805;28;98295;-78
2021/09/26 08:15:04;;;;;;;1999.90;999.90;;;;;;;14.84;51.18;101249.84;4960654;28;97393;-81
2021/09/26 08:17:32;;;;;;;1999.90;999.90;;;;;;;14.89;50.91;101253.47;4957974;28;97469;-76
2021/09/26 08:20:00;;;;;;;1999.90;999.90;;;;;;;14.91;50.32;101241.91;4962315;28;97751;-77
2021/09/26 08:22:28;;;;;;;1999.90;999.90;;;;;;;14.94;50.33;101246.38;4962672;28;98479;-77
2021/09/26 08:25:00;;;;;;;1999.90;999.90;;;;;;;14.96;50.22;101240.16;4947181;28;97543;-78
2021/09/26 08:27:28;;;;;;;1999.90;999.90;;;;;;;14.97;50.38;101247.28;4966211;28;97356;-79
2021/09/26 08:29:56;;;;;;;1999.90;999.90;;;;;;;15.00;50.25;101246.44;4969171;28;98153;-77
2021/09/26 08:32:27;;;;;;;1999.90;999.90;;;;;;;15.04;50.07;101238.47;4964986;28;98009;-78
2021/09/26 08:35:00;;;;;;;1999.90;999.90;;;;;;;15.07;50.12;101241.16;4964808;28;97409;-80
2021/09/26 08:37:28;;;;;;;1999.90;999.90;;;;;;;15.11;50.46;101239.41;4980725;28;97488;-77
2021/09/26 08:39:59;;;;;;;1999.90;999.90;;;;;;;15.14;50.46;101239.44;4961483;28;98335;-77
2021/09/26 08:42:39;;;;;;;1999.90;999.90;;;;;;;15.19;49.92;101237.72;4945881;28;97971;-77
2021/09/26 08:45:10;;;;;;;1999.90;999.90;;;;;;;15.23;50.00;101244.00;4962574;28;97522;-77
2021/09/26 08:47:39;;;;;;;1999.90;999.90;;;;;;;15.26;49.76;101252.97;4956720;28;96996;-78
2021/09/26 08:50:09;;;;;;;1999.90;999.90;;;;;;;15.28;49.84;101252.97;4961612;28;97380;-77
2021/09/26 08:52:37;;;;;;;1999.90;999.90;;;;;;;15.30;50.03;101254.84;4953206;28;101032;-79
2021/09/26 08:55:05;;;;;;;1999.90;999.90;;;;;;;15.32;49.84;101250.34;4960911;28;97887;-80
2021/09/26 08:57:33;;;;;;;1999.90;999.90;;;;;;;15.33;49.59;101252.16;4959172;28;97677;-75
2021/09/26 09:00:02;;;;;;;1999.90;999.90;;;;;;;15.36;49.66;101241.47;4955776;28;98500;-73
2021/09/26 09:02:29;;;;;;;1999.90;999.90;;;;;;;15.40;49.53;101243.28;4972487;28;97824;-74
2021/09/26 09:04:59;;;;;;;1999.90;999.90;;;;;;;15.46;49.51;101243.34;4960096;28;97412;-74
2021/09/26 09:07:29;;;;;;;1999.90;999.90;;;;;;;15.50;49.41;101247.81;4958422;28;98346;-74
2021/09/26 09:09:57;;;;;;;1999.90;999.90;;;;;;;15.56;49.58;101245.22;4941735;28;101529;-76
2021/09/26 09:12:27;;;;;;;1999.90;999.90;;;;;;;15.54;49.64;101235.38;4957827;28;99150;-75
2021/09/26 09:14:56;;;;;;;1999.90;999.90;;;;;;;15.56;49.70;101237.16;4942230;28;96874;-75
2021/09/26 09:17:29;;;;;;;1999.90;999.90;;;;;;;15.59;49.59;101242.56;4958937;28;97731;-74
2021/09/26 09:20:17;;;;;;;1999.90;999.90;;;;;;;15.61;48.83;101227.34;4959435;28;98463;-73
2021/09/26 09:22:47;;;;;;;1999.90;999.90;;;;;;;15.66;48.96;101231.00;4959431;28;98908;-74
2021/09/26 09:25:35;;;;;;;1999.90;999.90;;;;;;;15.69;48.95;101224.72;4974541;28;97620;-73
2021/09/26 09:28:05;;;;;;;1999.90;999.90;;;;;;;15.73;48.78;101211.38;4974850;28;97293;-73
2021/09/26 09:30:35;;;;;;;1999.90;999.90;;;;;;;15.57;49.45;101214.84;4958150;28;99725;-73
2021/09/26 09:33:03;;;;;;;1999.90;999.90;;;;;;;15.72;49.35;101214.91;4959494;28;98955;-73
2021/09/26 09:35:38;;;;;;;1999.90;999.90;;;;;;;15.78;49.17;101219.44;4990383;28;97884;-74
2021/09/26 09:38:06;;;;;;;1999.90;999.90;;;;;;;15.84;48.79;101209.66;4959725;28;97684;-77
2021/09/26 09:40:35;;;;;;;1999.90;999.90;;;;;;;15.90;48.42;101214.16;4959635;28;98726;-77
2021/09/26 09:43:03;;;;;;;1999.90;999.90;;;;;;;15.95;nan;101201.66;4959531;28;99080;-74
2021/09/26 09:45:33;;;;;;;1999.90;999.90;;;;;;;16.00;48.21;101202.56;4960498;28;98037;-75
2021/09/26 09:48:07;;;;;;;1999.90;999.90;;;;;;;16.05;48.24;101204.44;4991102;28;97464;-74
2021/09/26 09:50:59;;;;;;;1999.90;999.90;;;;;;;16.10;48.01;101205.34;4977538;28;98142;-76
2021/09/26 09:53:36;;;;;;;1999.90;999.90;;;;;;;16.17;48.21;101202.69;4974550;28;99064;-75
2021/09/26 09:56:09;;;;;;;1999.90;999.90;;;;;;;16.23;48.05;101208.09;4941000;28;97372;-75
2021/09/26 09:58:43;;;;;;;1999.90;999.90;;;;;;;16.27;48.01;101205.44;4961256;28;97624;-75
2021/09/26 10:01:13;;;;;;;1999.90;999.90;;;;;;;16.32;48.05;101208.16;4959476;28;99166;-78
2021/09/26 10:03:59;;;;;;;1999.90;999.90;;;;;;;16.38;47.71;101202.81;4958438;28;99175;-76
2021/09/26 10:06:40;;;;;;;1999.90;999.90;;;;;;;16.44;47.64;101198.34;4959880;28;97704;-76
2021/09/26 10:09:20;;;;;;;1999.90;999.90;;;;;;;16.50;47.83;101193.00;4975404;28;97447;-76
2021/09/26 10:11:50;;;;;;;1999.90;999.90;;;;;;;16.55;47.44;101191.22;4958411;28;99508;-78
2021/09/26 10:14:22;;;;;;;1999.90;999.90;;;;;;;16.62;47.50;101181.38;4962242;28;98629;-79
2021/09/26 10:16:51;;;;;;;1999.90;999.90;;;;;;;16.68;47.74;101186.78;4963877;28;97908;-77
2021/09/26 10:19:22;;;;;;;1999.90;999.90;;;;;;;16.74;47.33;101187.72;4962444;28;97563;-76
2021/09/26 10:21:52;;;;;;;1999.90;999.90;;;;;;;16.61;47.83;101196.63;4996776;28;99423;-76
2021/09/26 10:24:21;;;;;;;1999.90;999.90;;;;;;;16.58;47.75;101185.84;4966336;28;99055;-74
2021/09/26 10:26:49;;;;;;;1999.90;999.90;;;;;;;16.55;48.23;101184.94;4963401;28;97319;-77
2021/09/26 10:29:25;;;;;;;1999.90;999.90;;;;;;;16.51;48.11;101183.13;4974041;28;97460;-79
2021/09/26 10:31:56;;;;;;;1999.90;999.90;;;;;;;16.51;48.10;101177.75;4963721;28;97848;-77
2021/09/26 10:34:24;;;;;;;1999.90;999.90;;;;;;;16.52;48.28;101176.88;4943059;28;102321;-76
2021/09/26 10:36:53;;;;;;;1999.90;999.90;;;;;;;16.70;47.95;101175.19;4956240;28;99051;-76
2021/09/26 10:39:23;;;;;;;1999.90;999.90;;;;;;;16.80;47.99;101170.69;4954838;28;99631;-77
2021/09/26 10:42:07;;;;;;;1999.90;999.90;;;;;;;16.72;48.21;101168.03;4955720;28;99436;-76
2021/09/26 10:44:39;;;;;;;1999.90;999.90;;;;;;;16.77;48.29;101170.69;4959233;28;98380;-77
2021/09/26 10:47:16;;;;;;;1999.90;999.90;;;;;;;16.93;47.59;101168.03;4973980;28;97780;-77
2021/09/26 10:49:46;;;;;;;1999.90;999.90;;;;;;;17.04;47.54;101165.34;4961060;28;97408;-76
2021/09/26 10:52:27;;;;;;;1999.90;999.90;;;;;;;17.16;47.54;101162.69;4992126;28;99080;-77
2021/09/26 10:54:57;;;;;;;1999.90;999.90;;;;;;;17.27;47.36;101168.97;4958812;28;99115;-73
2021/09/26 10:57:29;;;;;;;1999.90;999.90;;;;;;;17.36;46.96;101165.38;4957648;28;97845;-78
2021/09/26 10:59:59;;;;;;;1999.90;999.90;;;;;;;17.43;46.82;101165.41;4949142;28;98869;-79
2021/09/26 11:02:47;;;;;;;1999.90;999.90;;;;;;;17.53;46.77;101158.22;4952705;28;101404;-77
2021/09/26 11:05:35;;;;;;;1999.90;999.90;;;;;;;17.60;46.59;101163.56;4984848;28;99691;-71